Pleasure Ridge Park, Kentucky
Current Conditions -  °F | °C
As of 3:56 PM on Friday 19 Dec 2014 (Local Time) from KSDF Reporting Station
Overcast Overcast  
Wind Chill: 31°   Ceiling: 25000
Heat Index: 36°   Visibility: 8mi
Dew Point: 22°   Wind: 6mph
Humidity: 57%   Direction: 350°N
Pressure: 30.28"   Gusts: NA
Location:  38.14°N, 85.84°W
Report Text: KSDF 192056Z 35005KT 8SM SCT200 OVC250 02/M06 A3028 RMK AO2 SLP259 T00221056 53001
Loading
Personal Weather Stations






























Interactive Weather Map New forecast layout! Learn more

10-Day Weather Forecast

Advertisements
Track Severe Weather on mobile